Lynn Lake, Canada
Current Conditions -  °F | °C
As of 7:21 AM on Thursday 23 Oct 2014 (Local Time) from CYYL Reporting Station
Light Rain Light Rain  
Wind Chill: 29°   Ceiling: 200
Heat Index: 36°   Visibility: 0.5mi
Dew Point: 36°   Wind: 9mph
Humidity: 100%   Direction: 60°ENE
Pressure: 29.79"   Gusts: NA
Location:  56.85°N, 101.05°W
Report Text: CYYL 231221Z AUTO 06008KT 1/2SM -RA FG VV002 02/02 A2979 RMK SLP107
Loading
Personal Weather Stations






























Interactive Weather Map
Tropical Storm Tracking
New forecast layout! Learn more

10-Day Weather Forecast

Advertisements
Track Severe Weather on mobile